sensor_id;sensor_type;location;lat;lon;timestamp;P1;durP1;ratioP1;P2;durP2;ratioP2
2558;SDS011;1289;53.488;10.006;2023-04-30T00:02:16;7.00;;;5.87;;
2558;SDS011;1289;53.488;10.006;2023-04-30T00:04:43;6.57;;;5.00;;
2558;SDS011;1289;53.488;10.006;2023-04-30T00:07:10;7.63;;;5.07;;
2558;SDS011;1289;53.488;10.006;2023-04-30T00:09:36;13.13;;;5.77;;
2558;SDS011;1289;53.488;10.006;2023-04-30T00:12:03;12.47;;;5.50;;
2558;SDS011;1289;53.488;10.006;2023-04-30T00:14:30;5.53;;;4.90;;
2558;SDS011;1289;53.488;10.006;2023-04-30T00:16:58;6.07;;;5.57;;
2558;SDS011;1289;53.488;10.006;2023-04-30T00:19:25;10.23;;;5.27;;
2558;SDS011;1289;53.488;10.006;2023-04-30T00:21:51;6.90;;;5.80;;
2558;SDS011;1289;53.488;10.006;2023-04-30T00:24:18;8.33;;;5.60;;
2558;SDS011;1289;53.488;10.006;2023-04-30T00:26:44;9.77;;;6.20;;
2558;SDS011;1289;53.488;10.006;2023-04-30T00:29:12;7.97;;;5.13;;
2558;SDS011;1289;53.488;10.006;2023-04-30T00:31:38;6.87;;;5.07;;
2558;SDS011;1289;53.488;10.006;2023-04-30T00:34:07;9.80;;;6.00;;
2558;SDS011;1289;53.488;10.006;2023-04-30T00:36:33;6.17;;;5.53;;
2558;SDS011;1289;53.488;10.006;2023-04-30T00:39:00;4.87;;;4.37;;
2558;SDS011;1289;53.488;10.006;2023-04-30T00:41:27;6.33;;;5.40;;
2558;SDS011;1289;53.488;10.006;2023-04-30T00:43:54;9.20;;;5.73;;
2558;SDS011;1289;53.488;10.006;2023-04-30T00:46:21;6.23;;;5.43;;
2558;SDS011;1289;53.488;10.006;2023-04-30T00:48:47;8.13;;;5.17;;
2558;SDS011;1289;53.488;10.006;2023-04-30T00:51:16;9.73;;;5.50;;
2558;SDS011;1289;53.488;10.006;2023-04-30T00:53:43;7.40;;;6.10;;
2558;SDS011;1289;53.488;10.006;2023-04-30T00:56:10;6.47;;;5.30;;
2558;SDS011;1289;53.488;10.006;2023-04-30T00:58:40;6.07;;;5.47;;
2558;SDS011;1289;53.488;10.006;2023-04-30T01:01:07;6.10;;;5.50;;
2558;SDS011;1289;53.488;10.006;2023-04-30T01:03:34;14.70;;;5.73;;
2558;SDS011;1289;53.488;10.006;2023-04-30T01:06:00;8.83;;;4.87;;
2558;SDS011;1289;53.488;10.006;2023-04-30T01:08:28;5.93;;;5.07;;
2558;SDS011;1289;53.488;10.006;2023-04-30T01:10:59;6.03;;;5.10;;
2558;SDS011;1289;53.488;10.006;2023-04-30T01:13:33;7.13;;;5.47;;
2558;SDS011;1289;53.488;10.006;2023-04-30T01:16:06;7.73;;;4.90;;
2558;SDS011;1289;53.488;10.006;2023-04-30T01:18:40;8.73;;;5.57;;
2558;SDS011;1289;53.488;10.006;2023-04-30T01:21:09;5.57;;;4.80;;
2558;SDS011;1289;53.488;10.006;2023-04-30T01:23:56;8.87;;;4.80;;
2558;SDS011;1289;53.488;10.006;2023-04-30T01:26:49;5.43;;;4.93;;
2558;SDS011;1289;53.488;10.006;2023-04-30T01:29:20;8.00;;;4.93;;
2558;SDS011;1289;53.488;10.006;2023-04-30T01:31:47;7.30;;;5.23;;
2558;SDS011;1289;53.488;10.006;2023-04-30T01:34:14;6.10;;;4.77;;
2558;SDS011;1289;53.488;10.006;2023-04-30T01:36:49;6.80;;;4.57;;
2558;SDS011;1289;53.488;10.006;2023-04-30T01:39:33;9.70;;;5.47;;
2558;SDS011;1289;53.488;10.006;2023-04-30T01:42:08;11.00;;;5.63;;
2558;SDS011;1289;53.488;10.006;2023-04-30T01:44:52;10.57;;;5.70;;
2558;SDS011;1289;53.488;10.006;2023-04-30T01:47:22;9.60;;;5.90;;
2558;SDS011;1289;53.488;10.006;2023-04-30T01:49:56;6.33;;;5.63;;
2558;SDS011;1289;53.488;10.006;2023-04-30T01:52:30;9.33;;;6.30;;
2558;SDS011;1289;53.488;10.006;2023-04-30T01:55:00;7.60;;;4.93;;
2558;SDS011;1289;53.488;10.006;2023-04-30T01:57:31;11.73;;;5.63;;
2558;SDS011;1289;53.488;10.006;2023-04-30T02:00:03;7.03;;;5.23;;
2558;SDS011;1289;53.488;10.006;2023-04-30T02:02:38;5.63;;;5.00;;
2558;SDS011;1289;53.488;10.006;2023-04-30T02:05:05;9.07;;;6.07;;
2558;SDS011;1289;53.488;10.006;2023-04-30T02:07:35;11.60;;;5.90;;
2558;SDS011;1289;53.488;10.006;2023-04-30T02:10:06;7.60;;;6.10;;
2558;SDS011;1289;53.488;10.006;2023-04-30T02:12:34;10.10;;;5.83;;
2558;SDS011;1289;53.488;10.006;2023-04-30T02:15:01;6.63;;;4.90;;
2558;SDS011;1289;53.488;10.006;2023-04-30T02:17:29;7.20;;;6.20;;
2558;SDS011;1289;53.488;10.006;2023-04-30T02:19:56;8.20;;;5.40;;
2558;SDS011;1289;53.488;10.006;2023-04-30T02:22:23;6.53;;;5.40;;
2558;SDS011;1289;53.488;10.006;2023-04-30T02:24:50;10.87;;;5.50;;
2558;SDS011;1289;53.488;10.006;2023-04-30T02:27:18;9.47;;;6.47;;
2558;SDS011;1289;53.488;10.006;2023-04-30T02:29:45;8.23;;;5.40;;
2558;SDS011;1289;53.488;10.006;2023-04-30T02:32:13;5.97;;;5.20;;
2558;SDS011;1289;53.488;10.006;2023-04-30T02:34:40;7.83;;;5.67;;
2558;SDS011;1289;53.488;10.006;2023-04-30T02:37:06;7.53;;;5.53;;
2558;SDS011;1289;53.488;10.006;2023-04-30T02:39:33;7.03;;;5.60;;
2558;SDS011;1289;53.488;10.006;2023-04-30T02:42:00;6.33;;;5.53;;
2558;SDS011;1289;53.488;10.006;2023-04-30T02:44:27;11.90;;;6.67;;
2558;SDS011;1289;53.488;10.006;2023-04-30T02:46:54;7.20;;;6.50;;
2558;SDS011;1289;53.488;10.006;2023-04-30T02:49:22;8.67;;;5.50;;
2558;SDS011;1289;53.488;10.006;2023-04-30T02:51:48;9.17;;;5.77;;
2558;SDS011;1289;53.488;10.006;2023-04-30T02:54:15;6.63;;;6.03;;
2558;SDS011;1289;53.488;10.006;2023-04-30T02:56:41;6.73;;;5.30;;
2558;SDS011;1289;53.488;10.006;2023-04-30T02:59:08;7.50;;;5.70;;
2558;SDS011;1289;53.488;10.006;2023-04-30T03:01:35;11.63;;;6.43;;
2558;SDS011;1289;53.488;10.006;2023-04-30T03:04:03;7.63;;;5.53;;
2558;SDS011;1289;53.488;10.006;2023-04-30T03:06:31;11.03;;;6.47;;
2558;SDS011;1289;53.488;10.006;2023-04-30T03:08:59;9.10;;;6.13;;
2558;SDS011;1289;53.488;10.006;2023-04-30T03:11:25;11.40;;;6.73;;
2558;SDS011;1289;53.488;10.006;2023-04-30T03:13:52;7.63;;;5.80;;
2558;SDS011;1289;53.488;10.006;2023-04-30T03:16:19;10.17;;;7.13;;
2558;SDS011;1289;53.488;10.006;2023-04-30T03:18:46;7.67;;;6.40;;
2558;SDS011;1289;53.488;10.006;2023-04-30T03:21:13;8.73;;;5.97;;
2558;SDS011;1289;53.488;10.006;2023-04-30T03:23:41;6.47;;;5.60;;
2558;SDS011;1289;53.488;10.006;2023-04-30T03:26:08;7.23;;;6.03;;
2558;SDS011;1289;53.488;10.006;2023-04-30T03:28:34;13.37;;;8.27;;
2558;SDS011;1289;53.488;10.006;2023-04-30T03:31:01;12.50;;;7.47;;
2558;SDS011;1289;53.488;10.006;2023-04-30T03:33:29;13.90;;;7.57;;
2558;SDS011;1289;53.488;10.006;2023-04-30T03:35:56;12.00;;;7.70;;
2558;SDS011;1289;53.488;10.006;2023-04-30T03:38:22;14.17;;;7.87;;
2558;SDS011;1289;53.488;10.006;2023-04-30T03:40:50;12.10;;;7.43;;
2558;SDS011;1289;53.488;10.006;2023-04-30T03:43:17;8.40;;;7.37;;
2558;SDS011;1289;53.488;10.006;2023-04-30T03:45:43;8.97;;;7.70;;
2558;SDS011;1289;53.488;10.006;2023-04-30T03:48:10;10.97;;;7.27;;
2558;SDS011;1289;53.488;10.006;2023-04-30T03:50:37;14.13;;;7.47;;
2558;SDS011;1289;53.488;10.006;2023-04-30T03:53:03;9.40;;;6.80;;
2558;SDS011;1289;53.488;10.006;2023-04-30T03:55:30;8.20;;;7.13;;
2558;SDS011;1289;53.488;10.006;2023-04-30T03:57:59;7.10;;;6.37;;
2558;SDS011;1289;53.488;10.006;2023-04-30T04:00:28;12.63;;;7.10;;
2558;SDS011;1289;53.488;10.006;2023-04-30T04:02:56;8.83;;;7.83;;
2558;SDS011;1289;53.488;10.006;2023-04-30T04:05:23;10.70;;;7.30;;
2558;SDS011;1289;53.488;10.006;2023-04-30T04:07:49;9.97;;;7.53;;
2558;SDS011;1289;53.488;10.006;2023-04-30T04:10:16;17.23;;;8.20;;
2558;SDS011;1289;53.488;10.006;2023-04-30T04:12:42;7.77;;;7.00;;
2558;SDS011;1289;53.488;10.006;2023-04-30T04:15:10;7.17;;;6.53;;
2558;SDS011;1289;53.488;10.006;2023-04-30T04:17:37;10.53;;;7.07;;
2558;SDS011;1289;53.488;10.006;2023-04-30T04:20:05;8.10;;;6.73;;
2558;SDS011;1289;53.488;10.006;2023-04-30T04:22:35;7.60;;;6.40;;
2558;SDS011;1289;53.488;10.006;2023-04-30T04:25:02;7.60;;;6.80;;
2558;SDS011;1289;53.488;10.006;2023-04-30T04:27:31;8.40;;;6.97;;
2558;SDS011;1289;53.488;10.006;2023-04-30T04:29:57;8.93;;;7.20;;
2558;SDS011;1289;53.488;10.006;2023-04-30T04:32:26;9.20;;;7.07;;
2558;SDS011;1289;53.488;10.006;2023-04-30T04:34:54;10.70;;;7.50;;
2558;SDS011;1289;53.488;10.006;2023-04-30T04:37:21;9.53;;;6.77;;
2558;SDS011;1289;53.488;10.006;2023-04-30T04:39:48;10.90;;;8.00;;
2558;SDS011;1289;53.488;10.006;2023-04-30T04:42:15;11.20;;;7.53;;
2558;SDS011;1289;53.488;10.006;2023-04-30T04:44:42;10.30;;;7.27;;
2558;SDS011;1289;53.488;10.006;2023-04-30T04:47:09;11.83;;;7.07;;
2558;SDS011;1289;53.488;10.006;2023-04-30T04:49:38;12.03;;;7.30;;
2558;SDS011;1289;53.488;10.006;2023-04-30T04:52:05;11.63;;;7.37;;
2558;SDS011;1289;53.488;10.006;2023-04-30T04:54:31;15.13;;;7.63;;
2558;SDS011;1289;53.488;10.006;2023-04-30T04:56:58;10.23;;;7.90;;
2558;SDS011;1289;53.488;10.006;2023-04-30T04:59:25;8.90;;;7.67;;
2558;SDS011;1289;53.488;10.006;2023-04-30T05:01:51;12.80;;;8.13;;
2558;SDS011;1289;53.488;10.006;2023-04-30T05:04:18;8.03;;;7.20;;
2558;SDS011;1289;53.488;10.006;2023-04-30T05:06:46;15.00;;;7.10;;
2558;SDS011;1289;53.488;10.006;2023-04-30T05:09:13;8.50;;;7.60;;
2558;SDS011;1289;53.488;10.006;2023-04-30T05:11:40;9.40;;;6.90;;
2558;SDS011;1289;53.488;10.006;2023-04-30T05:14:07;15.80;;;8.67;;
2558;SDS011;1289;53.488;10.006;2023-04-30T05:16:34;10.10;;;8.37;;
2558;SDS011;1289;53.488;10.006;2023-04-30T05:19:01;13.93;;;7.10;;
2558;SDS011;1289;53.488;10.006;2023-04-30T05:21:27;12.03;;;7.83;;
2558;SDS011;1289;53.488;10.006;2023-04-30T05:23:55;9.70;;;7.00;;
2558;SDS011;1289;53.488;10.006;2023-04-30T05:26:22;14.50;;;7.90;;
2558;SDS011;1289;53.488;10.006;2023-04-30T05:28:49;7.60;;;6.80;;
2558;SDS011;1289;53.488;10.006;2023-04-30T05:31:16;10.67;;;6.80;;
2558;SDS011;1289;53.488;10.006;2023-04-30T05:33:43;10.67;;;7.30;;
2558;SDS011;1289;53.488;10.006;2023-04-30T05:36:09;7.23;;;6.53;;
2558;SDS011;1289;53.488;10.006;2023-04-30T05:38:36;8.67;;;7.33;;
2558;SDS011;1289;53.488;10.006;2023-04-30T05:41:04;11.63;;;7.40;;
2558;SDS011;1289;53.488;10.006;2023-04-30T05:43:30;11.80;;;7.07;;
2558;SDS011;1289;53.488;10.006;2023-04-30T05:45:57;12.70;;;8.43;;
2558;SDS011;1289;53.488;10.006;2023-04-30T05:48:24;8.20;;;6.67;;
2558;SDS011;1289;53.488;10.006;2023-04-30T05:50:51;8.20;;;7.10;;
2558;SDS011;1289;53.488;10.006;2023-04-30T05:53:18;10.57;;;7.83;;
2558;SDS011;1289;53.488;10.006;2023-04-30T05:55:44;9.03;;;7.30;;
2558;SDS011;1289;53.488;10.006;2023-04-30T05:58:12;9.47;;;6.80;;
2558;SDS011;1289;53.488;10.006;2023-04-30T06:00:39;7.80;;;6.80;;
2558;SDS011;1289;53.488;10.006;2023-04-30T06:03:06;11.63;;;7.17;;
2558;SDS011;1289;53.488;10.006;2023-04-30T06:05:32;7.13;;;6.40;;
2558;SDS011;1289;53.488;10.006;2023-04-30T06:07:59;9.60;;;6.63;;
2558;SDS011;1289;53.488;10.006;2023-04-30T06:10:26;6.77;;;6.03;;
2558;SDS011;1289;53.488;10.006;2023-04-30T06:12:52;13.73;;;6.37;;
2558;SDS011;1289;53.488;10.006;2023-04-30T06:15:20;10.30;;;6.93;;
2558;SDS011;1289;53.488;10.006;2023-04-30T06:17:47;9.63;;;6.33;;
2558;SDS011;1289;53.488;10.006;2023-04-30T06:20:13;8.70;;;6.70;;
2558;SDS011;1289;53.488;10.006;2023-04-30T06:22:40;11.17;;;5.93;;
2558;SDS011;1289;53.488;10.006;2023-04-30T06:25:07;7.67;;;6.77;;
2558;SDS011;1289;53.488;10.006;2023-04-30T06:27:34;9.00;;;6.23;;
2558;SDS011;1289;53.488;10.006;2023-04-30T06:30:01;10.43;;;6.53;;
2558;SDS011;1289;53.488;10.006;2023-04-30T06:32:29;10.20;;;6.03;;
2558;SDS011;1289;53.488;10.006;2023-04-30T06:34:55;7.53;;;6.20;;
2558;SDS011;1289;53.488;10.006;2023-04-30T06:37:22;14.63;;;6.77;;
2558;SDS011;1289;53.488;10.006;2023-04-30T06:39:48;8.13;;;6.20;;
2558;SDS011;1289;53.488;10.006;2023-04-30T06:42:15;7.23;;;5.50;;
2558;SDS011;1289;53.488;10.006;2023-04-30T06:44:42;10.33;;;6.07;;
2558;SDS011;1289;53.488;10.006;2023-04-30T06:47:09;8.03;;;6.20;;
2558;SDS011;1289;53.488;10.006;2023-04-30T06:49:37;8.80;;;6.67;;
2558;SDS011;1289;53.488;10.006;2023-04-30T06:52:04;6.80;;;6.20;;
2558;SDS011;1289;53.488;10.006;2023-04-30T06:54:30;7.83;;;6.63;;
2558;SDS011;1289;53.488;10.006;2023-04-30T06:56:57;9.73;;;6.40;;
2558;SDS011;1289;53.488;10.006;2023-04-30T06:59:23;6.70;;;6.10;;
2558;SDS011;1289;53.488;10.006;2023-04-30T07:01:50;8.77;;;6.30;;
2558;SDS011;1289;53.488;10.006;2023-04-30T07:04:17;7.87;;;5.10;;
2558;SDS011;1289;53.488;10.006;2023-04-30T07:06:45;6.40;;;5.10;;
2558;SDS011;1289;53.488;10.006;2023-04-30T07:09:12;14.63;;;5.43;;
2558;SDS011;1289;53.488;10.006;2023-04-30T07:11:39;9.50;;;5.50;;
2558;SDS011;1289;53.488;10.006;2023-04-30T07:14:06;7.07;;;5.47;;
2558;SDS011;1289;53.488;10.006;2023-04-30T07:16:33;5.50;;;5.00;;
2558;SDS011;1289;53.488;10.006;2023-04-30T07:18:59;7.83;;;4.40;;
2558;SDS011;1289;53.488;10.006;2023-04-30T07:21:26;8.47;;;4.40;;
2558;SDS011;1289;53.488;10.006;2023-04-30T07:23:54;4.83;;;4.33;;
2558;SDS011;1289;53.488;10.006;2023-04-30T07:26:21;7.97;;;4.20;;
2558;SDS011;1289;53.488;10.006;2023-04-30T07:28:49;6.20;;;3.90;;
2558;SDS011;1289;53.488;10.006;2023-04-30T07:31:15;9.67;;;4.50;;
2558;SDS011;1289;53.488;10.006;2023-04-30T07:33:43;5.43;;;4.33;;
2558;SDS011;1289;53.488;10.006;2023-04-30T07:36:10;5.70;;;4.90;;
2558;SDS011;1289;53.488;10.006;2023-04-30T07:38:36;4.63;;;4.07;;
2558;SDS011;1289;53.488;10.006;2023-04-30T07:41:04;5.40;;;3.97;;
2558;SDS011;1289;53.488;10.006;2023-04-30T07:43:32;6.13;;;4.90;;
2558;SDS011;1289;53.488;10.006;2023-04-30T07:45:58;6.53;;;4.70;;
2558;SDS011;1289;53.488;10.006;2023-04-30T07:48:25;7.53;;;5.17;;
2558;SDS011;1289;53.488;10.006;2023-04-30T07:50:52;7.60;;;4.73;;
2558;SDS011;1289;53.488;10.006;2023-04-30T07:53:18;4.63;;;4.23;;
2558;SDS011;1289;53.488;10.006;2023-04-30T07:55:45;7.53;;;4.10;;
2558;SDS011;1289;53.488;10.006;2023-04-30T07:58:13;5.13;;;4.50;;
2558;SDS011;1289;53.488;10.006;2023-04-30T08:00:39;7.97;;;4.73;;
2558;SDS011;1289;53.488;10.006;2023-04-30T08:03:06;7.93;;;4.93;;
2558;SDS011;1289;53.488;10.006;2023-04-30T08:05:33;7.77;;;4.70;;
2558;SDS011;1289;53.488;10.006;2023-04-30T08:07:59;5.73;;;4.30;;
2558;SDS011;1289;53.488;10.006;2023-04-30T08:10:26;5.90;;;4.47;;
2558;SDS011;1289;53.488;10.006;2023-04-30T08:12:53;8.70;;;4.40;;
2558;SDS011;1289;53.488;10.006;2023-04-30T08:15:21;7.13;;;3.90;;
2558;SDS011;1289;53.488;10.006;2023-04-30T08:17:47;8.27;;;4.93;;
2558;SDS011;1289;53.488;10.006;2023-04-30T08:20:14;6.33;;;4.83;;
2558;SDS011;1289;53.488;10.006;2023-04-30T08:22:41;6.70;;;4.80;;
2558;SDS011;1289;53.488;10.006;2023-04-30T08:25:09;6.30;;;4.70;;
2558;SDS011;1289;53.488;10.006;2023-04-30T08:27:35;7.77;;;4.40;;
2558;SDS011;1289;53.488;10.006;2023-04-30T08:30:02;5.43;;;4.57;;
2558;SDS011;1289;53.488;10.006;2023-04-30T08:32:32;4.90;;;4.40;;
2558;SDS011;1289;53.488;10.006;2023-04-30T08:34:59;6.17;;;5.13;;
2558;SDS011;1289;53.488;10.006;2023-04-30T08:37:26;5.33;;;4.53;;
2558;SDS011;1289;53.488;10.006;2023-04-30T08:39:52;4.40;;;4.00;;
2558;SDS011;1289;53.488;10.006;2023-04-30T08:42:20;5.00;;;4.50;;
2558;SDS011;1289;53.488;10.006;2023-04-30T08:44:49;4.60;;;4.20;;
2558;SDS011;1289;53.488;10.006;2023-04-30T08:47:16;7.20;;;4.47;;
2558;SDS011;1289;53.488;10.006;2023-04-30T08:49:44;5.93;;;4.30;;
2558;SDS011;1289;53.488;10.006;2023-04-30T08:52:11;9.73;;;4.93;;
2558;SDS011;1289;53.488;10.006;2023-04-30T08:54:37;7.77;;;4.60;;
2558;SDS011;1289;53.488;10.006;2023-04-30T08:57:04;5.03;;;4.27;;
2558;SDS011;1289;53.488;10.006;2023-04-30T08:59:31;6.50;;;4.47;;
2558;SDS011;1289;53.488;10.006;2023-04-30T09:01:58;4.97;;;4.43;;
2558;SDS011;1289;53.488;10.006;2023-04-30T09:04:25;5.80;;;4.40;;
2558;SDS011;1289;53.488;10.006;2023-04-30T09:06:53;6.50;;;4.57;;
2558;SDS011;1289;53.488;10.006;2023-04-30T09:09:26;4.70;;;4.30;;
2558;SDS011;1289;53.488;10.006;2023-04-30T09:11:55;8.10;;;4.30;;
2558;SDS011;1289;53.488;10.006;2023-04-30T09:14:36;10.43;;;4.93;;
2558;SDS011;1289;53.488;10.006;2023-04-30T09:17:04;5.57;;;4.60;;
2558;SDS011;1289;53.488;10.006;2023-04-30T09:19:31;5.03;;;4.27;;
2558;SDS011;1289;53.488;10.006;2023-04-30T09:22:08;7.27;;;4.40;;
2558;SDS011;1289;53.488;10.006;2023-04-30T09:24:44;7.77;;;4.57;;
2558;SDS011;1289;53.488;10.006;2023-04-30T09:27:14;8.00;;;4.27;;
2558;SDS011;1289;53.488;10.006;2023-04-30T09:29:41;6.40;;;4.53;;
2558;SDS011;1289;53.488;10.006;2023-04-30T09:32:08;14.80;;;4.70;;
2558;SDS011;1289;53.488;10.006;2023-04-30T09:34:35;4.63;;;4.20;;
2558;SDS011;1289;53.488;10.006;2023-04-30T09:37:03;8.50;;;4.60;;
2558;SDS011;1289;53.488;10.006;2023-04-30T09:39:31;6.03;;;4.37;;
2558;SDS011;1289;53.488;10.006;2023-04-30T09:42:06;7.17;;;4.73;;
2558;SDS011;1289;53.488;10.006;2023-04-30T09:44:35;5.57;;;4.67;;
2558;SDS011;1289;53.488;10.006;2023-04-30T09:47:02;6.23;;;4.53;;
2558;SDS011;1289;53.488;10.006;2023-04-30T09:49:29;9.60;;;4.20;;
2558;SDS011;1289;53.488;10.006;2023-04-30T09:51:56;5.23;;;4.50;;
2558;SDS011;1289;53.488;10.006;2023-04-30T09:54:27;8.47;;;4.97;;
2558;SDS011;1289;53.488;10.006;2023-04-30T09:56:55;4.43;;;4.03;;
2558;SDS011;1289;53.488;10.006;2023-04-30T09:59:24;5.20;;;4.57;;
2558;SDS011;1289;53.488;10.006;2023-04-30T10:01:56;4.57;;;4.17;;
2558;SDS011;1289;53.488;10.006;2023-04-30T10:04:29;5.90;;;4.70;;
2558;SDS011;1289;53.488;10.006;2023-04-30T10:06:57;5.50;;;4.43;;
2558;SDS011;1289;53.488;10.006;2023-04-30T10:09:26;8.20;;;4.43;;
2558;SDS011;1289;53.488;10.006;2023-04-30T10:11:55;6.17;;;4.33;;
2558;SDS011;1289;53.488;10.006;2023-04-30T10:14:22;6.47;;;4.43;;
2558;SDS011;1289;53.488;10.006;2023-04-30T10:16:52;5.63;;;4.23;;
2558;SDS011;1289;53.488;10.006;2023-04-30T10:19:23;8.73;;;5.70;;
2558;SDS011;1289;53.488;10.006;2023-04-30T10:21:50;7.13;;;4.67;;
2558;SDS011;1289;53.488;10.006;2023-04-30T10:24:18;5.93;;;4.70;;
2558;SDS011;1289;53.488;10.006;2023-04-30T10:26:46;8.07;;;4.53;;
2558;SDS011;1289;53.488;10.006;2023-04-30T10:29:14;6.00;;;4.50;;
2558;SDS011;1289;53.488;10.006;2023-04-30T10:31:42;5.57;;;5.00;;
2558;SDS011;1289;53.488;10.006;2023-04-30T10:34:13;5.20;;;4.80;;
2558;SDS011;1289;53.488;10.006;2023-04-30T10:36:44;4.50;;;4.10;;
2558;SDS011;1289;53.488;10.006;2023-04-30T10:39:13;5.07;;;4.13;;
2558;SDS011;1289;53.488;10.006;2023-04-30T10:41:43;6.53;;;5.30;;
2558;SDS011;1289;53.488;10.006;2023-04-30T10:44:12;5.90;;;4.50;;
2558;SDS011;1289;53.488;10.006;2023-04-30T10:46:39;4.23;;;3.93;;
2558;SDS011;1289;53.488;10.006;2023-04-30T10:49:05;6.40;;;4.87;;
2558;SDS011;1289;53.488;10.006;2023-04-30T10:51:48;4.60;;;4.20;;
2558;SDS011;1289;53.488;10.006;2023-04-30T10:54:21;5.33;;;4.83;;
2558;SDS011;1289;53.488;10.006;2023-04-30T10:56:50;5.03;;;4.50;;
2558;SDS011;1289;53.488;10.006;2023-04-30T10:59:18;5.03;;;4.57;;
2558;SDS011;1289;53.488;10.006;2023-04-30T11:01:55;7.23;;;4.30;;
2558;SDS011;1289;53.488;10.006;2023-04-30T11:04:22;9.50;;;4.87;;
2558;SDS011;1289;53.488;10.006;2023-04-30T11:07:00;8.10;;;4.90;;
2558;SDS011;1289;53.488;10.006;2023-04-30T11:09:34;7.43;;;4.87;;
2558;SDS011;1289;53.488;10.006;2023-04-30T11:12:03;4.80;;;4.00;;
2558;SDS011;1289;53.488;10.006;2023-04-30T11:14:32;9.10;;;4.13;;
2558;SDS011;1289;53.488;10.006;2023-04-30T11:16:59;7.53;;;4.73;;
2558;SDS011;1289;53.488;10.006;2023-04-30T11:19:26;6.03;;;4.23;;
2558;SDS011;1289;53.488;10.006;2023-04-30T11:24:49;5.43;;;4.07;;
2558;SDS011;1289;53.488;10.006;2023-04-30T11:27:20;6.67;;;4.07;;
2558;SDS011;1289;53.488;10.006;2023-04-30T11:29:49;5.23;;;4.33;;
2558;SDS011;1289;53.488;10.006;2023-04-30T11:32:16;5.37;;;4.87;;
2558;SDS011;1289;53.488;10.006;2023-04-30T11:34:43;5.90;;;4.53;;
2558;SDS011;1289;53.488;10.006;2023-04-30T11:37:11;5.23;;;4.57;;
2558;SDS011;1289;53.488;10.006;2023-04-30T11:39:39;6.00;;;5.07;;
2558;SDS011;1289;53.488;10.006;2023-04-30T11:42:05;4.50;;;4.10;;
2558;SDS011;1289;53.488;10.006;2023-04-30T11:44:32;8.70;;;4.70;;
2558;SDS011;1289;53.488;10.006;2023-04-30T11:47:00;8.40;;;5.70;;
2558;SDS011;1289;53.488;10.006;2023-04-30T11:49:27;5.13;;;4.63;;
2558;SDS011;1289;53.488;10.006;2023-04-30T11:51:53;5.00;;;3.90;;
2558;SDS011;1289;53.488;10.006;2023-04-30T11:54:20;6.77;;;4.70;;
2558;SDS011;1289;53.488;10.006;2023-04-30T11:56:47;6.33;;;4.80;;
2558;SDS011;1289;53.488;10.006;2023-04-30T11:59:14;5.10;;;4.50;;
2558;SDS011;1289;53.488;10.006;2023-04-30T12:01:41;5.97;;;4.50;;
2558;SDS011;1289;53.488;10.006;2023-04-30T12:04:10;5.00;;;4.23;;
2558;SDS011;1289;53.488;10.006;2023-04-30T12:06:36;7.13;;;4.97;;
2558;SDS011;1289;53.488;10.006;2023-04-30T12:09:03;7.63;;;5.43;;
2558;SDS011;1289;53.488;10.006;2023-04-30T12:11:33;4.63;;;4.20;;
2558;SDS011;1289;53.488;10.006;2023-04-30T12:14:01;9.63;;;4.50;;
2558;SDS011;1289;53.488;10.006;2023-04-30T12:16:37;4.77;;;4.37;;
2558;SDS011;1289;53.488;10.006;2023-04-30T12:19:05;5.60;;;5.00;;
2558;SDS011;1289;53.488;10.006;2023-04-30T12:21:33;5.30;;;4.80;;
2558;SDS011;1289;53.488;10.006;2023-04-30T12:23:59;5.90;;;4.73;;
2558;SDS011;1289;53.488;10.006;2023-04-30T12:26:32;8.33;;;4.83;;
2558;SDS011;1289;53.488;10.006;2023-04-30T12:29:01;6.50;;;4.50;;
2558;SDS011;1289;53.488;10.006;2023-04-30T12:31:30;5.07;;;4.57;;
2558;SDS011;1289;53.488;10.006;2023-04-30T12:33:57;5.00;;;4.60;;
2558;SDS011;1289;53.488;10.006;2023-04-30T12:36:30;6.13;;;4.60;;
2558;SDS011;1289;53.488;10.006;2023-04-30T12:39:02;4.90;;;4.40;;
2558;SDS011;1289;53.488;10.006;2023-04-30T12:41:34;4.73;;;4.23;;
2558;SDS011;1289;53.488;10.006;2023-04-30T12:44:17;5.90;;;5.20;;
2558;SDS011;1289;53.488;10.006;2023-04-30T12:46:45;4.90;;;4.30;;
2558;SDS011;1289;53.488;10.006;2023-04-30T12:49:20;6.33;;;4.50;;
2558;SDS011;1289;53.488;10.006;2023-04-30T12:51:48;7.83;;;4.90;;
2558;SDS011;1289;53.488;10.006;2023-04-30T12:54:24;6.00;;;4.10;;
2558;SDS011;1289;53.488;10.006;2023-04-30T12:56:58;5.90;;;5.40;;
2558;SDS011;1289;53.488;10.006;2023-04-30T12:59:26;9.63;;;5.30;;
2558;SDS011;1289;53.488;10.006;2023-04-30T13:01:53;5.57;;;4.60;;
2558;SDS011;1289;53.488;10.006;2023-04-30T13:04:19;5.30;;;4.73;;
2558;SDS011;1289;53.488;10.006;2023-04-30T13:06:46;7.17;;;4.80;;
2558;SDS011;1289;53.488;10.006;2023-04-30T13:09:13;9.47;;;5.40;;
2558;SDS011;1289;53.488;10.006;2023-04-30T13:11:41;6.97;;;5.33;;
2558;SDS011;1289;53.488;10.006;2023-04-30T13:14:08;7.77;;;5.63;;
2558;SDS011;1289;53.488;10.006;2023-04-30T13:16:37;10.00;;;5.20;;
2558;SDS011;1289;53.488;10.006;2023-04-30T13:19:04;5.10;;;4.60;;
2558;SDS011;1289;53.488;10.006;2023-04-30T13:21:31;5.80;;;4.87;;
2558;SDS011;1289;53.488;10.006;2023-04-30T13:23:57;7.20;;;4.90;;
2558;SDS011;1289;53.488;10.006;2023-04-30T13:26:24;6.77;;;4.60;;
2558;SDS011;1289;53.488;10.006;2023-04-30T13:28:53;5.43;;;4.93;;
2558;SDS011;1289;53.488;10.006;2023-04-30T13:31:19;8.17;;;5.30;;
2558;SDS011;1289;53.488;10.006;2023-04-30T13:33:46;6.50;;;5.33;;
2558;SDS011;1289;53.488;10.006;2023-04-30T13:36:13;5.90;;;5.00;;
2558;SDS011;1289;53.488;10.006;2023-04-30T13:38:39;7.57;;;5.00;;
2558;SDS011;1289;53.488;10.006;2023-04-30T13:41:06;9.80;;;4.97;;
2558;SDS011;1289;53.488;10.006;2023-04-30T13:43:33;7.50;;;5.20;;
2558;SDS011;1289;53.488;10.006;2023-04-30T13:46:01;7.83;;;5.17;;
2558;SDS011;1289;53.488;10.006;2023-04-30T13:48:27;5.90;;;5.40;;
2558;SDS011;1289;53.488;10.006;2023-04-30T13:50:54;7.83;;;5.10;;
2558;SDS011;1289;53.488;10.006;2023-04-30T13:53:21;7.83;;;5.50;;
2558;SDS011;1289;53.488;10.006;2023-04-30T13:55:47;6.90;;;5.07;;
2558;SDS011;1289;53.488;10.006;2023-04-30T13:58:14;6.13;;;4.77;;
2558;SDS011;1289;53.488;10.006;2023-04-30T14:00:40;7.10;;;4.93;;
2558;SDS011;1289;53.488;10.006;2023-04-30T14:03:08;5.30;;;4.77;;
2558;SDS011;1289;53.488;10.006;2023-04-30T14:05:36;5.60;;;5.03;;
2558;SDS011;1289;53.488;10.006;2023-04-30T14:08:03;9.30;;;5.23;;
2558;SDS011;1289;53.488;10.006;2023-04-30T14:10:30;8.90;;;5.67;;
2558;SDS011;1289;53.488;10.006;2023-04-30T14:12:57;6.00;;;4.80;;
2558;SDS011;1289;53.488;10.006;2023-04-30T14:15:24;7.20;;;5.10;;
2558;SDS011;1289;53.488;10.006;2023-04-30T14:17:51;5.70;;;5.20;;
2558;SDS011;1289;53.488;10.006;2023-04-30T14:20:19;6.33;;;4.80;;
2558;SDS011;1289;53.488;10.006;2023-04-30T14:22:46;8.57;;;4.57;;
2558;SDS011;1289;53.488;10.006;2023-04-30T14:25:12;5.17;;;4.67;;
2558;SDS011;1289;53.488;10.006;2023-04-30T14:27:39;7.77;;;5.70;;
2558;SDS011;1289;53.488;10.006;2023-04-30T14:30:06;4.80;;;4.40;;
2558;SDS011;1289;53.488;10.006;2023-04-30T14:32:33;6.40;;;4.67;;
2558;SDS011;1289;53.488;10.006;2023-04-30T14:35:00;7.80;;;4.67;;
2558;SDS011;1289;53.488;10.006;2023-04-30T14:37:28;5.53;;;4.90;;
2558;SDS011;1289;53.488;10.006;2023-04-30T14:39:55;6.53;;;5.00;;
2558;SDS011;1289;53.488;10.006;2023-04-30T14:42:22;5.40;;;4.70;;
2558;SDS011;1289;53.488;10.006;2023-04-30T14:44:49;7.03;;;5.50;;
2558;SDS011;1289;53.488;10.006;2023-04-30T14:47:16;6.10;;;4.70;;
2558;SDS011;1289;53.488;10.006;2023-04-30T14:49:44;7.47;;;5.47;;
2558;SDS011;1289;53.488;10.006;2023-04-30T14:52:10;5.30;;;4.80;;
2558;SDS011;1289;53.488;10.006;2023-04-30T14:54:39;5.30;;;4.80;;
2558;SDS011;1289;53.488;10.006;2023-04-30T14:57:07;6.20;;;5.27;;
2558;SDS011;1289;53.488;10.006;2023-04-30T14:59:34;13.70;;;4.90;;
2558;SDS011;1289;53.488;10.006;2023-04-30T15:02:02;7.20;;;5.77;;
2558;SDS011;1289;53.488;10.006;2023-04-30T15:04:29;5.27;;;4.30;;
2558;SDS011;1289;53.488;10.006;2023-04-30T15:06:56;5.33;;;4.60;;
2558;SDS011;1289;53.488;10.006;2023-04-30T15:09:22;9.67;;;4.73;;